sensor_id;sensor_type;location;lat;lon;timestamp;pressure;altitude;pressure_sealevel;temperature;humidity
21742;BME280;11033;47.490;11.116;2023-02-19T00:01:19;93645.59;;;6.51;68.45
21742;BME280;11033;47.490;11.116;2023-02-19T00:03:52;93641.03;;;6.53;67.14
21742;BME280;11033;47.490;11.116;2023-02-19T00:06:19;93648.63;;;6.46;68.51
21742;BME280;11033;47.490;11.116;2023-02-19T00:08:45;93642.38;;;6.57;66.39
21742;BME280;11033;47.490;11.116;2023-02-19T00:11:16;93647.38;;;6.50;68.81
21742;BME280;11033;47.490;11.116;2023-02-19T00:13:44;93644.88;;;6.49;66.14
21742;BME280;11033;47.490;11.116;2023-02-19T00:16:16;93649.41;;;6.39;66.77
21742;BME280;11033;47.490;11.116;2023-02-19T00:18:41;93634.63;;;6.29;66.92
21742;BME280;11033;47.490;11.116;2023-02-19T00:21:07;93648.06;;;6.34;67.95
21742;BME280;11033;47.490;11.116;2023-02-19T00:23:33;93643.63;;;6.09;69.91
21742;BME280;11033;47.490;11.116;2023-02-19T00:26:11;93630.31;;;6.20;69.88
21742;BME280;11033;47.490;11.116;2023-02-19T00:28:37;93633.97;;;6.10;70.79
21742;BME280;11033;47.490;11.116;2023-02-19T00:31:08;93627.94;;;6.09;69.70
21742;BME280;11033;47.490;11.116;2023-02-19T00:33:34;93636.75;;;6.08;70.66
21742;BME280;11033;47.490;11.116;2023-02-19T00:36:03;93628.44;;;6.13;70.96
21742;BME280;11033;47.490;11.116;2023-02-19T00:38:29;93622.47;;;6.02;69.85
21742;BME280;11033;47.490;11.116;2023-02-19T00:40:54;93642.28;;;6.05;69.29
21742;BME280;11033;47.490;11.116;2023-02-19T00:43:19;93630.47;;;6.01;68.98
21742;BME280;11033;47.490;11.116;2023-02-19T00:45:45;93627.50;;;5.96;70.50
21742;BME280;11033;47.490;11.116;2023-02-19T00:48:10;93620.16;;;5.99;68.86
21742;BME280;11033;47.490;11.116;2023-02-19T00:50:35;93620.38;;;5.88;71.15
21742;BME280;11033;47.490;11.116;2023-02-19T00:53:00;93610.16;;;5.95;67.77
21742;BME280;11033;47.490;11.116;2023-02-19T00:55:26;93614.59;;;5.85;68.89
21742;BME280;11033;47.490;11.116;2023-02-19T00:57:51;93619.53;;;5.88;70.37
21742;BME280;11033;47.490;11.116;2023-02-19T01:00:16;93608.63;;;5.74;69.33
21742;BME280;11033;47.490;11.116;2023-02-19T01:02:42;93620.72;;;5.58;71.32
21742;BME280;11033;47.490;11.116;2023-02-19T01:05:07;93610.09;;;5.59;70.27
21742;BME280;11033;47.490;11.116;2023-02-19T01:07:35;93609.44;;;5.57;71.75
21742;BME280;11033;47.490;11.116;2023-02-19T01:10:00;93610.00;;;5.33;74.45
21742;BME280;11033;47.490;11.116;2023-02-19T01:12:25;93609.34;;;5.49;74.03
21742;BME280;11033;47.490;11.116;2023-02-19T01:14:52;93608.16;;;5.61;72.74
21742;BME280;11033;47.490;11.116;2023-02-19T01:17:18;93613.63;;;5.68;72.19
21742;BME280;11033;47.490;11.116;2023-02-19T01:19:44;93605.41;;;5.63;74.68
21742;BME280;11033;47.490;11.116;2023-02-19T01:22:09;93610.56;;;5.72;72.22
21742;BME280;11033;47.490;11.116;2023-02-19T01:24:34;93605.94;;;5.66;72.73
21742;BME280;11033;47.490;11.116;2023-02-19T01:27:00;93596.53;;;5.56;73.62
21742;BME280;11033;47.490;11.116;2023-02-19T01:29:25;93601.31;;;5.60;72.71
21742;BME280;11033;47.490;11.116;2023-02-19T01:31:50;93603.00;;;5.52;72.72
21742;BME280;11033;47.490;11.116;2023-02-19T01:34:15;93596.97;;;5.51;73.67
21742;BME280;11033;47.490;11.116;2023-02-19T01:36:41;93586.75;;;5.58;70.94
21742;BME280;11033;47.490;11.116;2023-02-19T01:39:06;93592.84;;;5.49;72.84
21742;BME280;11033;47.490;11.116;2023-02-19T01:41:35;93584.50;;;5.45;74.06
21742;BME280;11033;47.490;11.116;2023-02-19T01:44:06;93585.16;;;5.47;72.18
21742;BME280;11033;47.490;11.116;2023-02-19T01:46:36;93578.16;;;5.30;73.44
21742;BME280;11033;47.490;11.116;2023-02-19T01:49:09;93569.88;;;5.34;71.52
21742;BME280;11033;47.490;11.116;2023-02-19T01:51:38;93566.91;;;5.20;72.99
21742;BME280;11033;47.490;11.116;2023-02-19T01:54:07;93564.31;;;5.20;71.70
21742;BME280;11033;47.490;11.116;2023-02-19T01:56:35;93560.94;;;5.09;73.79
21742;BME280;11033;47.490;11.116;2023-02-19T01:59:02;93568.97;;;4.98;75.57
21742;BME280;11033;47.490;11.116;2023-02-19T02:01:28;93567.56;;;5.04;75.98
21742;BME280;11033;47.490;11.116;2023-02-19T02:03:54;93563.69;;;5.08;75.23
21742;BME280;11033;47.490;11.116;2023-02-19T02:06:25;93547.78;;;5.01;75.90
21742;BME280;11033;47.490;11.116;2023-02-19T02:08:55;93553.47;;;5.15;75.47
21742;BME280;11033;47.490;11.116;2023-02-19T02:11:44;93551.66;;;4.97;77.00
21742;BME280;11033;47.490;11.116;2023-02-19T02:14:11;93558.53;;;4.98;74.91
21742;BME280;11033;47.490;11.116;2023-02-19T02:16:45;93546.53;;;5.05;75.48
21742;BME280;11033;47.490;11.116;2023-02-19T02:19:28;93553.47;;;5.15;75.68
21742;BME280;11033;47.490;11.116;2023-02-19T02:22:06;93544.97;;;5.13;73.83
21742;BME280;11033;47.490;11.116;2023-02-19T02:25:10;93545.25;;;5.09;74.49
21742;BME280;11033;47.490;11.116;2023-02-19T02:27:48;93553.00;;;5.01;76.17
21742;BME280;11033;47.490;11.116;2023-02-19T02:35:33;93533.47;;;5.05;75.95
21742;BME280;11033;47.490;11.116;2023-02-19T02:38:03;93527.50;;;4.95;75.15
21742;BME280;11033;47.490;11.116;2023-02-19T02:40:31;93526.44;;;4.88;77.14
21742;BME280;11033;47.490;11.116;2023-02-19T02:42:58;93535.47;;;4.94;76.52
21742;BME280;11033;47.490;11.116;2023-02-19T02:45:28;93521.31;;;4.96;76.66
21742;BME280;11033;47.490;11.116;2023-02-19T02:48:03;93524.22;;;4.93;74.69
21742;BME280;11033;47.490;11.116;2023-02-19T02:50:40;93513.78;;;4.93;75.84
21742;BME280;11033;47.490;11.116;2023-02-19T02:53:12;93521.75;;;4.92;76.59
21742;BME280;11033;47.490;11.116;2023-02-19T02:55:58;93507.03;;;4.73;78.22
21742;BME280;11033;47.490;11.116;2023-02-19T02:58:25;93498.38;;;4.72;77.46
21742;BME280;11033;47.490;11.116;2023-02-19T03:00:56;93498.97;;;4.66;77.32
21742;BME280;11033;47.490;11.116;2023-02-19T03:03:43;93498.81;;;4.68;75.23
21742;BME280;11033;47.490;11.116;2023-02-19T03:06:10;93510.72;;;4.43;77.87
21742;BME280;11033;47.490;11.116;2023-02-19T03:08:47;93485.16;;;4.56;76.09
21742;BME280;11033;47.490;11.116;2023-02-19T03:11:15;93493.09;;;4.55;78.10
21742;BME280;11033;47.490;11.116;2023-02-19T03:14:04;93488.75;;;4.45;77.30
21742;BME280;11033;47.490;11.116;2023-02-19T03:16:50;93474.84;;;4.55;78.19
21742;BME280;11033;47.490;11.116;2023-02-19T03:19:40;93473.09;;;4.45;79.49
21742;BME280;11033;47.490;11.116;2023-02-19T03:22:14;93458.03;;;4.39;78.32
21742;BME280;11033;47.490;11.116;2023-02-19T03:24:46;93472.78;;;4.58;76.27
21742;BME280;11033;47.490;11.116;2023-02-19T03:27:31;93460.78;;;4.38;79.37
21742;BME280;11033;47.490;11.116;2023-02-19T03:30:02;93453.41;;;4.33;80.36
21742;BME280;11033;47.490;11.116;2023-02-19T03:35:26;93446.25;;;4.35;79.39
21742;BME280;11033;47.490;11.116;2023-02-19T03:38:14;93442.69;;;4.36;78.42
21742;BME280;11033;47.490;11.116;2023-02-19T03:43:44;93444.91;;;4.31;77.08
21742;BME280;11033;47.490;11.116;2023-02-19T03:46:35;93434.81;;;4.19;79.49
21742;BME280;11033;47.490;11.116;2023-02-19T03:49:11;93443.75;;;4.16;79.56
21742;BME280;11033;47.490;11.116;2023-02-19T03:51:50;93432.56;;;4.33;79.05
21742;BME280;11033;47.490;11.116;2023-02-19T03:54:30;93433.91;;;4.37;77.83
21742;BME280;11033;47.490;11.116;2023-02-19T03:57:02;93440.66;;;4.30;79.41
21742;BME280;11033;47.490;11.116;2023-02-19T04:00:02;93442.31;;;4.31;79.80
21742;BME280;11033;47.490;11.116;2023-02-19T04:02:34;93434.47;;;4.31;80.62
21742;BME280;11033;47.490;11.116;2023-02-19T04:05:10;93437.81;;;4.24;80.26
21742;BME280;11033;47.490;11.116;2023-02-19T04:07:41;93436.59;;;4.45;79.30
21742;BME280;11033;47.490;11.116;2023-02-19T04:10:09;93447.41;;;4.51;79.49
21742;BME280;11033;47.490;11.116;2023-02-19T04:12:38;93432.34;;;4.44;80.11
21742;BME280;11033;47.490;11.116;2023-02-19T04:15:09;93451.19;;;4.38;81.13
21742;BME280;11033;47.490;11.116;2023-02-19T04:17:50;93447.91;;;4.36;79.84
21742;BME280;11033;47.490;11.116;2023-02-19T04:20:19;93452.38;;;4.44;79.78
21742;BME280;11033;47.490;11.116;2023-02-19T04:22:45;93462.00;;;4.43;79.64
21742;BME280;11033;47.490;11.116;2023-02-19T04:25:11;93464.03;;;4.50;80.49
21742;BME280;11033;47.490;11.116;2023-02-19T04:27:37;93467.00;;;4.55;80.27
21742;BME280;11033;47.490;11.116;2023-02-19T04:30:04;93460.44;;;4.51;79.34
21742;BME280;11033;47.490;11.116;2023-02-19T04:32:30;93450.03;;;4.51;79.64
21742;BME280;11033;47.490;11.116;2023-02-19T04:34:55;93463.41;;;4.65;79.51
21742;BME280;11033;47.490;11.116;2023-02-19T04:37:20;93449.47;;;4.57;77.57
21742;BME280;11033;47.490;11.116;2023-02-19T04:39:46;93469.78;;;4.53;78.74
21742;BME280;11033;47.490;11.116;2023-02-19T04:42:11;93439.44;;;4.52;78.19
21742;BME280;11033;47.490;11.116;2023-02-19T04:44:36;93471.91;;;4.67;78.82
21742;BME280;11033;47.490;11.116;2023-02-19T04:47:02;93472.50;;;4.61;80.40
21742;BME280;11033;47.490;11.116;2023-02-19T04:49:27;93469.59;;;4.64;77.14
21742;BME280;11033;47.490;11.116;2023-02-19T04:51:52;93472.22;;;4.55;79.37
21742;BME280;11033;47.490;11.116;2023-02-19T04:54:18;93462.88;;;4.62;77.16
21742;BME280;11033;47.490;11.116;2023-02-19T04:56:43;93478.84;;;4.59;78.49
21742;BME280;11033;47.490;11.116;2023-02-19T04:59:09;93482.81;;;4.53;78.78
21742;BME280;11033;47.490;11.116;2023-02-19T05:01:34;93484.59;;;4.53;79.22
21742;BME280;11033;47.490;11.116;2023-02-19T05:03:59;93488.38;;;4.68;77.81
21742;BME280;11033;47.490;11.116;2023-02-19T05:06:25;93508.66;;;4.74;78.00
21742;BME280;11033;47.490;11.116;2023-02-19T05:08:50;93526.25;;;4.72;78.44
21742;BME280;11033;47.490;11.116;2023-02-19T05:11:15;93509.94;;;4.70;77.91
21742;BME280;11033;47.490;11.116;2023-02-19T05:13:40;93520.28;;;4.62;78.99
21742;BME280;11033;47.490;11.116;2023-02-19T05:16:09;93554.84;;;4.64;79.98
21742;BME280;11033;47.490;11.116;2023-02-19T05:18:38;93561.78;;;4.45;80.79
21742;BME280;11033;47.490;11.116;2023-02-19T05:21:03;93541.44;;;4.49;79.36
21742;BME280;11033;47.490;11.116;2023-02-19T05:23:29;93545.53;;;4.61;79.02
21742;BME280;11033;47.490;11.116;2023-02-19T05:25:54;93576.78;;;4.71;79.78
21742;BME280;11033;47.490;11.116;2023-02-19T05:28:20;93581.47;;;4.67;80.49
21742;BME280;11033;47.490;11.116;2023-02-19T05:30:53;93582.00;;;4.71;79.39
21742;BME280;11033;47.490;11.116;2023-02-19T05:33:20;93594.81;;;4.92;81.28
21742;BME280;11033;47.490;11.116;2023-02-19T05:35:49;93534.88;;;5.00;79.72
21742;BME280;11033;47.490;11.116;2023-02-19T05:38:16;93535.88;;;5.17;79.96
21742;BME280;11033;47.490;11.116;2023-02-19T05:40:41;93552.53;;;4.88;81.35
21742;BME280;11033;47.490;11.116;2023-02-19T05:43:07;93565.50;;;4.80;80.78
21742;BME280;11033;47.490;11.116;2023-02-19T05:45:33;93599.22;;;4.91;81.54
21742;BME280;11033;47.490;11.116;2023-02-19T05:47:59;93553.00;;;5.01;79.83
21742;BME280;11033;47.490;11.116;2023-02-19T05:50:25;93533.19;;;5.08;79.83
21742;BME280;11033;47.490;11.116;2023-02-19T05:52:50;93532.03;;;5.21;81.02
21742;BME280;11033;47.490;11.116;2023-02-19T05:55:16;93531.78;;;5.14;82.73
21742;BME280;11033;47.490;11.116;2023-02-19T05:57:43;93538.41;;;5.08;82.70
21742;BME280;11033;47.490;11.116;2023-02-19T06:00:15;93531.22;;;5.20;82.16
21742;BME280;11033;47.490;11.116;2023-02-19T06:02:41;93534.09;;;5.17;81.04
21742;BME280;11033;47.490;11.116;2023-02-19T06:05:07;93543.63;;;5.08;81.82
21742;BME280;11033;47.490;11.116;2023-02-19T06:07:33;93538.78;;;5.14;83.25
21742;BME280;11033;47.490;11.116;2023-02-19T06:09:58;93517.75;;;5.15;81.83
21742;BME280;11033;47.490;11.116;2023-02-19T06:12:23;93534.09;;;5.17;83.59
21742;BME280;11033;47.490;11.116;2023-02-19T06:14:49;93533.94;;;5.19;82.41
21742;BME280;11033;47.490;11.116;2023-02-19T06:17:15;93530.34;;;5.20;82.26
21742;BME280;11033;47.490;11.116;2023-02-19T06:19:41;93541.38;;;5.14;84.57
21742;BME280;11033;47.490;11.116;2023-02-19T06:22:07;93536.28;;;5.22;84.21
21742;BME280;11033;47.490;11.116;2023-02-19T06:24:33;93553.91;;;5.37;84.02
21742;BME280;11033;47.490;11.116;2023-02-19T06:26:58;93532.19;;;5.37;82.72
21742;BME280;11033;47.490;11.116;2023-02-19T06:29:24;93541.13;;;5.52;82.39
21742;BME280;11033;47.490;11.116;2023-02-19T06:31:49;93544.41;;;5.54;82.77
21742;BME280;11033;47.490;11.116;2023-02-19T06:34:14;93542.84;;;5.61;80.56
21742;BME280;11033;47.490;11.116;2023-02-19T06:36:40;93530.75;;;5.60;80.83
21742;BME280;11033;47.490;11.116;2023-02-19T06:39:05;93548.66;;;5.73;79.94
21742;BME280;11033;47.490;11.116;2023-02-19T06:41:31;93548.06;;;5.79;81.54
21742;BME280;11033;47.490;11.116;2023-02-19T06:43:57;93530.09;;;5.94;79.95
21742;BME280;11033;47.490;11.116;2023-02-19T06:46:22;93530.91;;;5.94;79.63
21742;BME280;11033;47.490;11.116;2023-02-19T06:48:48;93536.03;;;6.04;77.96
21742;BME280;11033;47.490;11.116;2023-02-19T06:51:15;93526.97;;;6.16;76.87
21742;BME280;11033;47.490;11.116;2023-02-19T06:53:42;93537.44;;;6.16;78.59
21742;BME280;11033;47.490;11.116;2023-02-19T06:56:29;93541.38;;;6.20;79.05
21742;BME280;11033;47.490;11.116;2023-02-19T06:58:56;93530.75;;;6.48;76.70
21742;BME280;11033;47.490;11.116;2023-02-19T07:01:24;93555.72;;;6.42;77.50
21742;BME280;11033;47.490;11.116;2023-02-19T07:03:49;93567.63;;;6.36;78.63
21742;BME280;11033;47.490;11.116;2023-02-19T07:06:16;93573.97;;;6.52;75.92
21742;BME280;11033;47.490;11.116;2023-02-19T07:08:41;93581.81;;;6.52;78.27
21742;BME280;11033;47.490;11.116;2023-02-19T07:11:07;93564.88;;;6.64;77.35
21742;BME280;11033;47.490;11.116;2023-02-19T07:13:32;93561.94;;;6.67;75.99
21742;BME280;11033;47.490;11.116;2023-02-19T07:15:59;93571.03;;;6.55;76.73
21742;BME280;11033;47.490;11.116;2023-02-19T07:18:24;93578.13;;;6.62;76.16
21742;BME280;11033;47.490;11.116;2023-02-19T07:20:50;93586.31;;;6.67;76.95
21742;BME280;11033;47.490;11.116;2023-02-19T07:23:15;93579.00;;;6.79;75.60
21742;BME280;11033;47.490;11.116;2023-02-19T07:25:41;93574.47;;;6.89;73.73
21742;BME280;11033;47.490;11.116;2023-02-19T07:28:06;93591.50;;;6.93;73.04
21742;BME280;11033;47.490;11.116;2023-02-19T07:30:32;93588.72;;;6.95;74.47
21742;BME280;11033;47.490;11.116;2023-02-19T07:32:57;93589.53;;;6.87;74.97
21742;BME280;11033;47.490;11.116;2023-02-19T07:35:22;93584.00;;;6.98;74.80
21742;BME280;11033;47.490;11.116;2023-02-19T07:37:48;93586.06;;;7.21;71.29
21742;BME280;11033;47.490;11.116;2023-02-19T07:40:13;93591.22;;;7.39;70.10
21742;BME280;11033;47.490;11.116;2023-02-19T07:42:38;93581.19;;;7.26;72.16
21742;BME280;11033;47.490;11.116;2023-02-19T07:45:04;93590.06;;;7.41;70.56
21742;BME280;11033;47.490;11.116;2023-02-19T07:47:29;93592.72;;;7.49;70.23
21742;BME280;11033;47.490;11.116;2023-02-19T07:49:54;93597.63;;;7.52;70.44
21742;BME280;11033;47.490;11.116;2023-02-19T07:52:20;93597.75;;;7.35;74.07
21742;BME280;11033;47.490;11.116;2023-02-19T07:54:45;93598.75;;;7.50;72.38
21742;BME280;11033;47.490;11.116;2023-02-19T07:57:10;93607.81;;;7.63;71.10
21742;BME280;11033;47.490;11.116;2023-02-19T07:59:36;93610.44;;;7.72;70.41
21742;BME280;11033;47.490;11.116;2023-02-19T08:02:01;93589.19;;;7.83;69.85
21742;BME280;11033;47.490;11.116;2023-02-19T08:04:48;93609.84;;;7.94;69.82
21742;BME280;11033;47.490;11.116;2023-02-19T08:07:13;93610.50;;;7.96;69.26
21742;BME280;11033;47.490;11.116;2023-02-19T08:09:38;93612.81;;;8.07;69.36
21742;BME280;11033;47.490;11.116;2023-02-19T08:12:04;93617.06;;;8.16;69.74
21742;BME280;11033;47.490;11.116;2023-02-19T08:14:48;93617.06;;;8.33;67.88
21742;BME280;11033;47.490;11.116;2023-02-19T08:17:13;93611.41;;;9.01;62.70
21742;BME280;11033;47.490;11.116;2023-02-19T08:19:38;93617.00;;;8.98;62.60
21742;BME280;11033;47.490;11.116;2023-02-19T08:22:04;93608.63;;;9.02;62.16
21742;BME280;11033;47.490;11.116;2023-02-19T08:24:29;93620.25;;;9.24;61.59
21742;BME280;11033;47.490;11.116;2023-02-19T08:26:57;93621.78;;;9.49;60.18
21742;BME280;11033;47.490;11.116;2023-02-19T08:29:23;93625.34;;;9.57;60.00
21742;BME280;11033;47.490;11.116;2023-02-19T08:31:48;93617.06;;;9.68;60.27
21742;BME280;11033;47.490;11.116;2023-02-19T08:34:14;93636.41;;;9.83;58.63
21742;BME280;11033;47.490;11.116;2023-02-19T08:36:39;93626.50;;;9.93;58.53
21742;BME280;11033;47.490;11.116;2023-02-19T08:39:04;93632.34;;;10.03;57.56
21742;BME280;11033;47.490;11.116;2023-02-19T08:41:29;93633.94;;;10.12;57.53
21742;BME280;11033;47.490;11.116;2023-02-19T08:43:55;93644.72;;;10.26;56.78
21742;BME280;11033;47.490;11.116;2023-02-19T08:46:20;93636.13;;;10.32;56.86
21742;BME280;11033;47.490;11.116;2023-02-19T08:48:46;93640.03;;;10.36;56.93
21742;BME280;11033;47.490;11.116;2023-02-19T08:51:12;93647.44;;;10.40;56.63
21742;BME280;11033;47.490;11.116;2023-02-19T08:53:38;93645.91;;;10.46;57.25
21742;BME280;11033;47.490;11.116;2023-02-19T08:56:05;93653.75;;;10.54;57.00
21742;BME280;11033;47.490;11.116;2023-02-19T08:58:30;93641.88;;;10.58;55.81
21742;BME280;11033;47.490;11.116;2023-02-19T09:00:57;93648.41;;;10.62;56.76
21742;BME280;11033;47.490;11.116;2023-02-19T09:03:22;93648.69;;;10.67;56.88
21742;BME280;11033;47.490;11.116;2023-02-19T09:05:47;93653.91;;;10.75;56.75
21742;BME280;11033;47.490;11.116;2023-02-19T09:08:12;93649.91;;;10.79;56.29
21742;BME280;11033;47.490;11.116;2023-02-19T09:10:38;93660.38;;;10.88;55.78
21742;BME280;11033;47.490;11.116;2023-02-19T09:13:04;93661.66;;;10.92;56.11
21742;BME280;11033;47.490;11.116;2023-02-19T09:15:29;93655.19;;;10.94;56.42
21742;BME280;11033;47.490;11.116;2023-02-19T09:17:55;93664.22;;;11.00;56.67
21742;BME280;11033;47.490;11.116;2023-02-19T09:20:20;93660.06;;;11.05;56.09
21742;BME280;11033;47.490;11.116;2023-02-19T09:22:45;93660.88;;;11.06;56.41
21742;BME280;11033;47.490;11.116;2023-02-19T09:25:11;93663.78;;;11.11;56.11
21742;BME280;11033;47.490;11.116;2023-02-19T09:27:37;93668.84;;;10.98;56.17
21742;BME280;11033;47.490;11.116;2023-02-19T09:30:03;93669.16;;;11.18;56.00
21742;BME280;11033;47.490;11.116;2023-02-19T09:32:30;93677.16;;;11.24;56.54
21742;BME280;11033;47.490;11.116;2023-02-19T09:34:55;93663.44;;;11.14;56.40
21742;BME280;11033;47.490;11.116;2023-02-19T09:37:24;93673.81;;;11.30;56.03
21742;BME280;11033;47.490;11.116;2023-02-19T09:39:50;93687.53;;;11.40;55.89
21742;BME280;11033;47.490;11.116;2023-02-19T09:42:18;93680.34;;;11.49;55.65
21742;BME280;11033;47.490;11.116;2023-02-19T09:44:47;93690.38;;;11.54;55.62
21742;BME280;11033;47.490;11.116;2023-02-19T09:47:18;93677.53;;;11.65;55.21
21742;BME280;11033;47.490;11.116;2023-02-19T09:49:46;93686.72;;;11.55;54.88
21742;BME280;11033;47.490;11.116;2023-02-19T09:52:28;93676.16;;;11.55;55.93
21742;BME280;11033;47.490;11.116;2023-02-19T09:55:00;93677.91;;;11.48;56.57
21742;BME280;11033;47.490;11.116;2023-02-19T09:57:29;93700.47;;;11.50;56.84
21742;BME280;11033;47.490;11.116;2023-02-19T10:00:02;93687.47;;;11.93;57.25
21742;BME280;11033;47.490;11.116;2023-02-19T10:02:28;93679.38;;;11.94;57.22
21742;BME280;11033;47.490;11.116;2023-02-19T10:04:56;93652.06;;;11.87;57.46
21742;BME280;11033;47.490;11.116;2023-02-19T10:07:24;93679.28;;;12.24;56.23
21742;BME280;11033;47.490;11.116;2023-02-19T10:10:09;93671.97;;;12.62;56.53
21742;BME280;11033;47.490;11.116;2023-02-19T10:12:47;93697.91;;;12.52;56.81
21742;BME280;11033;47.490;11.116;2023-02-19T10:17:52;93686.72;;;12.71;55.30
21742;BME280;11033;47.490;11.116;2023-02-19T10:20:20;93682.38;;;12.42;55.53
21742;BME280;11033;47.490;11.116;2023-02-19T10:23:01;93661.31;;;12.98;55.30
21742;BME280;11033;47.490;11.116;2023-02-19T10:25:27;93673.66;;;13.12;54.04
21742;BME280;11033;47.490;11.116;2023-02-19T10:27:53;93684.22;;;13.12;54.24
21742;BME280;11033;47.490;11.116;2023-02-19T10:30:22;93671.25;;;12.96;54.57
21742;BME280;11033;47.490;11.116;2023-02-19T10:33:11;93683.59;;;13.31;53.88
21742;BME280;11033;47.490;11.116;2023-02-19T10:35:57;93687.31;;;13.44;53.62
21742;BME280;11033;47.490;11.116;2023-02-19T10:38:30;93691.84;;;13.50;54.15
21742;BME280;11033;47.490;11.116;2023-02-19T10:40:59;93702.44;;;13.50;53.74
21742;BME280;11033;47.490;11.116;2023-02-19T10:43:28;93704.53;;;13.61;52.96
21742;BME280;11033;47.490;11.116;2023-02-19T10:46:04;93694.34;;;13.92;53.67
21742;BME280;11033;47.490;11.116;2023-02-19T10:48:34;93705.53;;;13.88;54.01
21742;BME280;11033;47.490;11.116;2023-02-19T10:51:07;93710.88;;;13.94;52.72
21742;BME280;11033;47.490;11.116;2023-02-19T10:53:45;93719.59;;;13.88;54.11
21742;BME280;11033;47.490;11.116;2023-02-19T10:56:14;93693.22;;;13.74;53.02
21742;BME280;11033;47.490;11.116;2023-02-19T10:58:41;93706.13;;;13.83;51.91
21742;BME280;11033;47.490;11.116;2023-02-19T11:01:26;93704.66;;;13.74;51.53
21742;BME280;11033;47.490;11.116;2023-02-19T11:04:15;93697.91;;;13.44;52.34
21742;BME280;11033;47.490;11.116;2023-02-19T11:06:41;93693.56;;;13.08;52.47
21742;BME280;11033;47.490;11.116;2023-02-19T11:09:23;93694.41;;;13.37;52.96
21742;BME280;11033;47.490;11.116;2023-02-19T11:11:53;93705.53;;;13.25;53.49
21742;BME280;11033;47.490;11.116;2023-02-19T11:14:21;93673.38;;;13.28;54.31
21742;BME280;11033;47.490;11.116;2023-02-19T11:16:52;93685.97;;;13.54;51.68
21742;BME280;11033;47.490;11.116;2023-02-19T11:19:27;93672.69;;;13.48;52.27
21742;BME280;11033;47.490;11.116;2023-02-19T11:21:53;93710.03;;;12.46;55.24
21742;BME280;11033;47.490;11.116;2023-02-19T11:24:23;93687.16;;;12.75;55.23
21742;BME280;11033;47.490;11.116;2023-02-19T11:26:50;93688.84;;;12.82;56.00
21742;BME280;11033;47.490;11.116;2023-02-19T11:29:18;93661.31;;;12.98;54.34
21742;BME280;11033;47.490;11.116;2023-02-19T11:31:44;93668.31;;;13.06;52.86
21742;BME280;11033;47.490;11.116;2023-02-19T11:36:38;93655.69;;;12.58;54.17
21742;BME280;11033;47.490;11.116;2023-02-19T11:50:16;93640.09;;;12.42;54.62
21742;BME280;11033;47.490;11.116;2023-02-19T11:59:38;93620.88;;;13.25;52.76
21742;BME280;11033;47.490;11.116;2023-02-19T12:02:00;93621.16;;;13.44;51.73
21742;BME280;11033;47.490;11.116;2023-02-19T12:10:36;93608.31;;;13.75;50.72
21742;BME280;11033;47.490;11.116;2023-02-19T12:16:15;93597.34;;;14.85;48.56
21742;BME280;11033;47.490;11.116;2023-02-19T12:18:57;93595.72;;;14.91;47.56
21742;BME280;11033;47.490;11.116;2023-02-19T12:21:36;93609.59;;;13.92;48.58
21742;BME280;11033;47.490;11.116;2023-02-19T12:24:40;93586.03;;;14.24;47.82
21742;BME280;11033;47.490;11.116;2023-02-19T12:37:59;93576.13;;;14.52;48.44
21742;BME280;11033;47.490;11.116;2023-02-19T12:40:42;93598.88;;;14.27;47.77
21742;BME280;11033;47.490;11.116;2023-02-19T12:43:17;93594.44;;;14.34;48.72
21742;BME280;11033;47.490;11.116;2023-02-19T12:45:48;93602.91;;;14.10;48.63
21742;BME280;11033;47.490;11.116;2023-02-19T12:48:36;93597.22;;;14.06;48.54
21742;BME280;11033;47.490;11.116;2023-02-19T12:51:13;93569.88;;;13.92;48.58
21742;BME280;11033;47.490;11.116;2023-02-19T12:56:27;93635.13;;;14.13;47.39
21742;BME280;11033;47.490;11.116;2023-02-19T12:59:03;93641.78;;;13.96;46.94
21742;BME280;11033;47.490;11.116;2023-02-19T13:01:34;93640.88;;;14.30;47.32
21742;BME280;11033;47.490;11.116;2023-02-19T13:04:18;93650.50;;;13.83;48.70
21742;BME280;11033;47.490;11.116;2023-02-19T13:06:57;93657.16;;;14.14;46.71
21742;BME280;11033;47.490;11.116;2023-02-19T13:09:47;93679.56;;;14.66;46.72
21742;BME280;11033;47.490;11.116;2023-02-19T13:12:19;93670.34;;;14.55;47.22
21742;BME280;11033;47.490;11.116;2023-02-19T13:14:48;93698.59;;;15.09;46.21
21742;BME280;11033;47.490;11.116;2023-02-19T13:19:49;93699.19;;;15.57;43.56
21742;BME280;11033;47.490;11.116;2023-02-19T13:22:33;93687.97;;;15.81;43.71
21742;BME280;11033;47.490;11.116;2023-02-19T13:25:20;93687.94;;;15.88;43.97
21742;BME280;11033;47.490;11.116;2023-02-19T13:28:00;93685.81;;;16.10;44.09
21742;BME280;11033;47.490;11.116;2023-02-19T13:30:52;93692.25;;;15.43;44.54
21742;BME280;11033;47.490;11.116;2023-02-19T13:33:29;93687.34;;;15.53;43.90
21742;BME280;11033;47.490;11.116;2023-02-19T13:36:02;93675.94;;;15.26;44.82
21742;BME280;11033;47.490;11.116;2023-02-19T13:38:43;93667.94;;;14.80;46.24
21742;BME280;11033;47.490;11.116;2023-02-19T13:41:27;93669.56;;;14.81;45.35
21742;BME280;11033;47.490;11.116;2023-02-19T13:44:05;93679.53;;;14.52;45.66
21742;BME280;11033;47.490;11.116;2023-02-19T13:46:35;93675.69;;;14.75;44.89
21742;BME280;11033;47.490;11.116;2023-02-19T13:51:59;93704.00;;;14.13;46.20
21742;BME280;11033;47.490;11.116;2023-02-19T13:54:30;93705.16;;;13.98;47.04
21742;BME280;11033;47.490;11.116;2023-02-19T13:59:48;93695.69;;;13.75;45.42
21742;BME280;11033;47.490;11.116;2023-02-19T14:04:49;93711.31;;;14.05;45.72
21742;BME280;11033;47.490;11.116;2023-02-19T14:09:43;93693.06;;;13.82;46.83
21742;BME280;11033;47.490;11.116;2023-02-19T14:14:48;93701.69;;;13.62;45.38
21742;BME280;11033;47.490;11.116;2023-02-19T14:17:46;93703.28;;;13.01;45.12
21742;BME280;11033;47.490;11.116;2023-02-19T14:30:51;93692.50;;;12.81;44.84
21742;BME280;11033;47.490;11.116;2023-02-19T14:33:54;93708.66;;;13.14;44.35
21742;BME280;11033;47.490;11.116;2023-02-19T14:39:18;93710.25;;;12.66;45.24